Time;durP1;ratioP1;P1;durP2;ratioP2;P2;SDS_P1;SDS_P2;PMS_P1;PMS_P2;Temp;Humidity;BMP_temperature;BMP_pressure;BME280_temperature;BME280_humidity;BME280_pressure;Samples;Min_cycle;Max_cycle;Signal;HPM_P1;HPM_P2
2023/08/31 00:01:09;;;;;;;7.63;2.72;;;10.50;99.90;;;;;;5027509;28;20068;-68
2023/08/31 00:03:35;;;;;;;9.60;3.33;;;10.50;99.90;;;;;;5047367;28;20049;-68
2023/08/31 00:06:04;;;;;;;4.95;3.08;;;10.30;99.90;;;;;;5043713;28;20037;-68
2023/08/31 00:08:30;;;;;;;5.95;2.83;;;10.20;99.90;;;;;;5028107;28;20033;-68
2023/08/31 00:10:57;;;;;;;6.13;2.72;;;10.20;99.90;;;;;;5034288;28;20420;-68
2023/08/31 00:13:23;;;;;;;8.75;3.30;;;10.20;99.90;;;;;;5018275;28;20152;-68
2023/08/31 00:15:48;;;;;;;3.15;2.08;;;10.20;99.90;;;;;;5031857;28;20064;-68
2023/08/31 00:18:16;;;;;;;6.45;2.72;;;10.00;99.90;;;;;;5034305;28;20053;-68
2023/08/31 00:20:41;;;;;;;5.78;2.45;;;10.10;99.90;;;;;;5041233;28;20040;-68
2023/08/31 00:23:07;;;;;;;7.15;2.38;;;10.00;99.90;;;;;;5052469;28;20450;-68
2023/08/31 00:25:33;;;;;;;8.48;3.15;;;9.80;99.90;;;;;;5046290;28;20024;-68
2023/08/31 00:28:04;;;;;;;6.82;2.90;;;9.90;99.90;;;;;;5038172;28;20040;-68
2023/08/31 00:30:30;;;;;;;7.60;2.70;;;9.90;99.90;;;;;;5053005;28;20041;-68
2023/08/31 00:32:59;;;;;;;6.75;3.03;;;9.90;99.90;;;;;;5041355;28;20098;-68
2023/08/31 00:35:27;;;;;;;8.52;3.85;;;10.20;99.90;;;;;;5045896;28;20040;-68
2023/08/31 00:37:57;;;;;;;8.23;2.88;;;10.20;99.90;;;;;;5054408;28;20480;-68
2023/08/31 00:40:23;;;;;;;10.98;2.90;;;10.10;99.90;;;;;;5053773;28;20043;-67
2023/08/31 00:42:48;;;;;;;8.82;2.92;;;10.20;99.90;;;;;;5053110;28;20033;-67
2023/08/31 00:45:14;;;;;;;9.57;3.45;;;10.20;99.90;;;;;;5025142;28;20133;-68
2023/08/31 00:47:39;;;;;;;10.20;3.40;;;10.30;99.90;;;;;;5033036;28;20063;-68
2023/08/31 00:50:07;;;;;;;8.07;3.25;;;10.10;99.90;;;;;;5032646;28;20112;-68
2023/08/31 00:52:33;;;;;;;5.57;3.10;;;10.30;99.90;;;;;;5051977;28;20491;-67
2023/08/31 00:55:03;;;;;;;6.68;3.50;;;10.10;99.90;;;;;;5054838;28;20553;-67
2023/08/31 00:57:28;;;;;;;7.45;3.40;;;10.10;99.90;;;;;;5041277;28;20041;-68
2023/08/31 00:59:55;;;;;;;8.60;3.30;;;10.10;99.90;;;;;;5040181;28;20043;-67
2023/08/31 01:02:34;;;;;;;5.35;2.70;;;10.20;99.90;;;;;;5048130;28;20481;-67
2023/08/31 01:05:11;;;;;;;8.00;3.25;;;9.90;99.90;;;;;;5036872;28;20181;-67
2023/08/31 01:07:56;;;;;;;8.32;2.92;;;10.10;99.90;;;;;;5049727;28;20571;-68
2023/08/31 01:10:55;;;;;;;4.28;2.78;;;10.00;99.90;;;;;;5042229;28;20043;-67
2023/08/31 01:13:25;;;;;;;6.50;3.33;;;10.10;99.90;;;;;;5034430;28;20134;-67
2023/08/31 01:15:58;;;;;;;5.38;3.00;;;10.00;99.90;;;;;;5032475;28;20473;-68
2023/08/31 01:18:25;;;;;;;7.10;3.20;;;9.80;99.90;;;;;;5033886;28;20045;-68
2023/08/31 01:21:16;;;;;;;8.63;3.08;;;9.70;99.90;;;;;;5038233;28;20072;-68
2023/08/31 01:23:49;;;;;;;7.05;3.33;;;9.60;99.90;;;;;;5041980;28;20105;-68
2023/08/31 01:26:15;;;;;;;6.20;2.95;;;9.60;99.90;;;;;;5031355;28;20116;-67
2023/08/31 01:28:40;;;;;;;10.57;3.67;;;9.50;99.90;;;;;;5048146;28;20140;-68
2023/08/31 01:31:07;;;;;;;6.40;2.70;;;9.50;99.90;;;;;;5031845;28;20130;-68
2023/08/31 01:33:32;;;;;;;9.15;3.15;;;9.60;99.90;;;;;;5042097;28;20057;-68
2023/08/31 01:36:02;;;;;;;4.68;2.90;;;9.60;99.90;;;;;;5035088;28;20055;-68
2023/08/31 01:38:33;;;;;;;8.40;2.93;;;9.50;99.90;;;;;;5048216;28;20068;-68
2023/08/31 01:41:07;;;;;;;9.27;3.22;;;9.30;99.90;;;;;;5021313;28;20735;-67
2023/08/31 01:43:35;;;;;;;7.03;3.67;;;9.20;99.90;;;;;;5045230;28;20045;-68
2023/08/31 01:46:01;;;;;;;6.13;2.80;;;9.30;99.90;;;;;;5036239;28;20077;-67
2023/08/31 01:48:27;;;;;;;9.15;3.03;;;9.30;99.90;;;;;;5041508;28;20497;-67
2023/08/31 01:50:52;;;;;;;5.45;2.90;;;9.40;99.90;;;;;;5042794;28;20532;-68
2023/08/31 01:53:18;;;;;;;7.55;2.65;;;9.20;99.90;;;;;;5038456;28;20054;-67
2023/08/31 01:55:43;;;;;;;6.03;2.80;;;9.20;99.90;;;;;;5038003;28;20051;-68
2023/08/31 01:58:09;;;;;;;7.50;2.85;;;9.10;99.90;;;;;;5046764;28;20036;-68
2023/08/31 02:00:35;;;;;;;8.00;2.75;;;9.30;99.90;;;;;;5045545;28;20044;-68
2023/08/31 02:03:01;;;;;;;9.50;2.80;;;9.00;99.90;;;;;;5039559;28;20044;-67
2023/08/31 02:05:27;;;;;;;6.93;2.72;;;9.10;99.90;;;;;;5041002;28;20040;-68
2023/08/31 02:07:52;;;;;;;7.22;2.70;;;9.20;99.90;;;;;;5048315;28;20040;-68
2023/08/31 02:10:18;;;;;;;6.72;2.78;;;9.00;99.90;;;;;;5036714;28;20131;-67
2023/08/31 02:12:44;;;;;;;5.70;2.53;;;9.20;99.90;;;;;;5031726;28;20052;-68
2023/08/31 02:15:09;;;;;;;7.43;2.80;;;9.20;99.90;;;;;;5011373;28;20467;-68
2023/08/31 02:17:35;;;;;;;5.78;2.85;;;9.10;99.90;;;;;;5046380;28;20050;-68
2023/08/31 02:20:02;;;;;;;6.22;2.72;;;9.20;99.90;;;;;;5034553;28;20113;-68
2023/08/31 02:22:31;;;;;;;6.65;2.95;;;9.30;99.90;;;;;;5030398;28;20038;-68
2023/08/31 02:24:56;;;;;;;6.57;2.90;;;9.00;99.90;;;;;;5039631;28;20045;-68
2023/08/31 02:27:22;;;;;;;4.80;2.70;;;9.00;99.90;;;;;;5029529;28;20030;-68
2023/08/31 02:29:48;;;;;;;7.97;3.28;;;9.20;99.90;;;;;;5032662;28;20041;-68
2023/08/31 02:32:13;;;;;;;5.78;2.78;;;9.20;99.90;;;;;;5048002;28;20040;-68
2023/08/31 02:34:39;;;;;;;7.35;3.08;;;9.20;99.90;;;;;;5047369;28;20041;-68
2023/08/31 02:37:04;;;;;;;6.60;3.47;;;9.10;99.90;;;;;;5037679;28;20052;-68
2023/08/31 02:39:30;;;;;;;8.95;3.15;;;9.30;99.90;;;;;;5047468;28;20148;-68
2023/08/31 02:41:55;;;;;;;9.05;3.30;;;9.20;99.90;;;;;;5035237;28;20041;-68
2023/08/31 02:44:21;;;;;;;6.70;3.20;;;9.30;99.90;;;;;;5031895;28;20089;-68
2023/08/31 02:46:46;;;;;;;7.78;3.15;;;9.20;99.90;;;;;;5025982;28;20034;-68
2023/08/31 02:49:12;;;;;;;8.25;3.72;;;8.90;99.90;;;;;;5049488;28;20071;-67
2023/08/31 02:51:37;;;;;;;7.60;3.50;;;9.10;99.90;;;;;;5048991;28;20064;-68
2023/08/31 02:54:03;;;;;;;4.47;3.10;;;9.10;99.90;;;;;;5044818;28;20045;-68
2023/08/31 02:56:29;;;;;;;12.77;4.97;;;8.90;99.90;;;;;;5039699;28;20033;-68
2023/08/31 02:58:54;;;;;;;6.70;3.80;;;9.20;99.90;;;;;;5043713;28;21923;-68
2023/08/31 03:01:20;;;;;;;7.38;4.63;;;9.20;99.90;;;;;;5045085;28;20033;-67
2023/08/31 03:03:46;;;;;;;13.05;5.25;;;9.10;99.90;;;;;;5047841;28;20056;-67
2023/08/31 03:06:12;;;;;;;9.55;4.55;;;9.50;99.90;;;;;;5047351;28;20076;-69
2023/08/31 03:08:38;;;;;;;11.68;4.43;;;9.30;99.90;;;;;;5047422;28;20447;-68
2023/08/31 03:11:04;;;;;;;11.32;5.05;;;9.40;99.90;;;;;;5046604;28;20488;-68
2023/08/31 03:13:31;;;;;;;9.60;4.78;;;9.50;99.90;;;;;;5035299;28;20052;-68
2023/08/31 03:15:57;;;;;;;12.85;4.65;;;9.40;99.90;;;;;;5029786;28;20060;-67
2023/08/31 03:18:23;;;;;;;13.65;5.30;;;9.50;99.90;;;;;;5039474;28;20236;-67
2023/08/31 03:20:49;;;;;;;9.70;5.13;;;9.30;99.90;;;;;;5033916;28;20451;-68
2023/08/31 03:23:14;;;;;;;12.75;5.13;;;9.40;99.90;;;;;;5020680;28;20060;-68
2023/08/31 03:25:40;;;;;;;9.98;5.13;;;9.50;99.90;;;;;;5037466;28;20462;-68
2023/08/31 03:28:06;;;;;;;10.50;5.57;;;9.40;99.90;;;;;;5030111;28;20065;-68
2023/08/31 03:30:31;;;;;;;11.65;5.15;;;9.30;99.90;;;;;;5009710;28;20444;-68
2023/08/31 03:32:57;;;;;;;10.88;5.68;;;9.40;99.90;;;;;;5046129;28;20116;-67
2023/08/31 03:35:26;;;;;;;9.65;4.75;;;9.50;99.90;;;;;;5047028;28;20041;-68
2023/08/31 03:37:52;;;;;;;8.10;5.00;;;9.20;99.90;;;;;;5038177;28;20053;-68
2023/08/31 03:40:18;;;;;;;12.02;5.40;;;9.50;99.90;;;;;;5037074;28;20329;-68
2023/08/31 03:42:43;;;;;;;10.07;5.25;;;9.40;99.90;;;;;;5044403;28;20041;-67
2023/08/31 03:45:09;;;;;;;10.57;5.50;;;9.60;99.90;;;;;;5013488;28;20505;-68
2023/08/31 03:47:35;;;;;;;10.73;5.47;;;9.40;99.90;;;;;;5042317;28;20037;-68
2023/08/31 03:50:00;;;;;;;11.23;5.28;;;9.50;99.90;;;;;;5031779;28;20394;-67
2023/08/31 03:52:26;;;;;;;9.68;6.25;;;9.80;99.90;;;;;;5028166;28;20434;-68
2023/08/31 03:54:52;;;;;;;11.20;6.07;;;9.70;99.90;;;;;;5041173;28;20482;-68
2023/08/31 03:57:18;;;;;;;11.02;6.63;;;9.80;99.90;;;;;;5036282;28;20499;-67
2023/08/31 03:59:43;;;;;;;11.00;6.57;;;10.00;99.90;;;;;;5035481;28;20053;-67
2023/08/31 04:02:09;;;;;;;16.08;7.45;;;9.80;99.90;;;;;;5039416;28;20045;-69
2023/08/31 04:04:35;;;;;;;16.98;7.25;;;10.00;99.90;;;;;;5036821;28;20040;-69
2023/08/31 04:07:00;;;;;;;14.25;6.93;;;9.80;99.90;;;;;;5047730;28;20041;-70
2023/08/31 04:09:26;;;;;;;14.60;7.82;;;10.00;99.90;;;;;;5035222;28;20041;-70
2023/08/31 04:11:51;;;;;;;16.73;8.27;;;9.90;99.90;;;;;;5032922;28;20998;-69
2023/08/31 04:14:18;;;;;;;14.00;7.28;;;9.90;99.90;;;;;;5030126;28;20037;-69
2023/08/31 04:16:44;;;;;;;16.63;7.38;;;9.90;99.90;;;;;;5045410;28;20049;-69
2023/08/31 04:19:09;;;;;;;15.50;8.68;;;9.80;99.90;;;;;;5047328;28;20396;-67
2023/08/31 04:21:36;;;;;;;13.30;7.38;;;10.00;99.90;;;;;;5039346;28;20135;-68
2023/08/31 04:24:01;;;;;;;19.42;8.70;;;10.10;99.90;;;;;;5044882;28;20079;-70
2023/08/31 04:26:27;;;;;;;16.05;8.27;;;10.10;99.90;;;;;;5028408;28;20098;-69
2023/08/31 04:28:53;;;;;;;16.73;8.07;;;10.20;99.90;;;;;;5028026;28;20032;-70
2023/08/31 04:31:19;;;;;;;17.65;8.85;;;10.00;99.90;;;;;;5032335;28;20025;-70
2023/08/31 04:33:45;;;;;;;15.43;8.50;;;10.20;99.90;;;;;;5033139;28;20055;-69
2023/08/31 04:36:11;;;;;;;17.08;9.30;;;10.20;99.90;;;;;;5036666;28;20379;-69
2023/08/31 04:38:37;;;;;;;15.52;7.90;;;10.00;99.90;;;;;;5028955;28;20120;-70
2023/08/31 04:41:03;;;;;;;23.15;8.65;;;10.20;99.90;;;;;;5047941;28;20485;-69
2023/08/31 04:43:29;;;;;;;17.45;8.63;;;10.10;99.90;;;;;;5040539;28;20083;-69
2023/08/31 04:45:55;;;;;;;15.75;8.15;;;10.30;99.90;;;;;;5026925;28;20163;-69
2023/08/31 04:48:20;;;;;;;20.77;8.80;;;10.30;99.90;;;;;;5040660;28;20044;-69
2023/08/31 04:50:46;;;;;;;18.27;8.55;;;10.30;99.90;;;;;;5033125;28;20046;-69
2023/08/31 04:53:12;;;;;;;17.10;8.93;;;10.40;99.90;;;;;;5046017;28;20132;-69
2023/08/31 04:55:37;;;;;;;24.73;9.07;;;10.40;99.90;;;;;;5039047;28;20037;-66
2023/08/31 04:58:03;;;;;;;16.80;9.07;;;10.30;99.90;;;;;;5045690;28;20073;-66
2023/08/31 05:00:29;;;;;;;20.88;9.07;;;10.20;99.90;;;;;;5034927;28;20032;-66
2023/08/31 05:02:55;;;;;;;18.45;8.82;;;10.30;99.90;;;;;;5042067;28;20050;-66
2023/08/31 05:05:21;;;;;;;18.40;8.63;;;10.30;99.90;;;;;;5042419;28;20476;-66
2023/08/31 05:07:47;;;;;;;16.02;8.60;;;10.20;99.90;;;;;;5038309;28;20033;-66
2023/08/31 05:10:12;;;;;;;17.55;8.65;;;10.10;99.90;;;;;;5034168;28;20495;-67
2023/08/31 05:12:38;;;;;;;17.88;8.00;;;10.30;99.90;;;;;;5043487;28;20029;-67
2023/08/31 05:15:04;;;;;;;14.85;8.20;;;10.30;99.90;;;;;;5035632;28;20063;-66
2023/08/31 05:17:30;;;;;;;21.90;8.65;;;10.00;99.90;;;;;;5042495;28;20183;-67
2023/08/31 05:19:56;;;;;;;17.63;8.15;;;10.10;99.90;;;;;;5045461;28;20044;-67
2023/08/31 05:22:22;;;;;;;18.25;8.68;;;10.10;99.90;;;;;;5044372;28;20496;-66
2023/08/31 05:24:48;;;;;;;15.63;7.55;;;10.10;99.90;;;;;;5036134;28;20079;-66
2023/08/31 05:27:13;;;;;;;15.10;8.13;;;10.10;99.90;;;;;;5035865;28;20041;-66
2023/08/31 05:29:39;;;;;;;20.75;8.52;;;10.10;99.90;;;;;;5037695;28;20108;-67
2023/08/31 05:32:04;;;;;;;15.60;7.80;;;10.10;99.90;;;;;;5042573;28;20048;-66
2023/08/31 05:34:33;;;;;;;16.85;8.02;;;10.10;99.90;;;;;;5046538;28;20059;-66
2023/08/31 05:36:58;;;;;;;16.20;7.70;;;10.30;99.90;;;;;;5049207;28;20063;-66
2023/08/31 05:39:25;;;;;;;15.63;7.32;;;10.40;99.90;;;;;;5050734;28;20400;-66
2023/08/31 05:41:50;;;;;;;20.17;8.20;;;10.40;99.90;;;;;;5050738;28;20059;-66
2023/08/31 05:44:16;;;;;;;16.27;7.13;;;10.50;99.90;;;;;;5014094;28;20041;-66
2023/08/31 05:46:42;;;;;;;17.05;7.53;;;10.30;99.90;;;;;;5039113;28;20366;-66
2023/08/31 05:49:08;;;;;;;13.60;7.85;;;10.60;99.90;;;;;;5034990;28;20024;-67
2023/08/31 05:51:34;;;;;;;17.00;7.03;;;10.60;99.90;;;;;;5036250;28;20045;-66
2023/08/31 05:53:59;;;;;;;17.83;7.75;;;10.60;99.90;;;;;;5046740;28;20049;-66
2023/08/31 05:56:26;;;;;;;18.02;7.22;;;10.50;99.90;;;;;;5051234;28;20045;-66
2023/08/31 05:58:54;;;;;;;15.75;7.20;;;10.80;99.90;;;;;;5040800;28;20127;-67
2023/08/31 06:01:21;;;;;;;18.48;7.38;;;10.80;99.90;;;;;;5019054;28;20526;-66
2023/08/31 06:03:48;;;;;;;14.55;7.32;;;10.80;99.90;;;;;;5015514;28;20046;-66
2023/08/31 06:06:13;;;;;;;15.48;6.88;;;10.70;99.90;;;;;;5040466;28;20503;-66
2023/08/31 06:08:39;;;;;;;15.25;7.10;;;11.10;99.90;;;;;;5040028;28;20068;-66
2023/08/31 06:11:04;;;;;;;17.10;6.30;;;11.00;99.90;;;;;;5029537;28;20041;-66
2023/08/31 06:13:30;;;;;;;15.00;6.80;;;11.10;99.90;;;;;;5035442;28;20041;-67
2023/08/31 06:15:57;;;;;;;14.88;6.38;;;11.00;99.90;;;;;;5028646;28;20099;-67
2023/08/31 06:18:23;;;;;;;11.68;5.80;;;11.00;99.90;;;;;;5050911;28;20064;-66
2023/08/31 06:20:51;;;;;;;16.88;6.57;;;11.20;99.90;;;;;;5038532;28;20400;-67
2023/08/31 06:23:17;;;;;;;13.40;6.45;;;11.30;99.90;;;;;;5041835;28;20081;-67
2023/08/31 06:25:45;;;;;;;13.23;6.28;;;11.20;99.90;;;;;;5046970;28;20077;-67
2023/08/31 06:28:12;;;;;;;16.30;7.25;;;11.60;99.90;;;;;;5045256;28;20048;-67
2023/08/31 06:30:38;;;;;;;17.40;5.93;;;11.60;99.90;;;;;;5027554;28;20432;-67
2023/08/31 06:33:04;;;;;;;18.13;6.70;;;11.60;99.90;;;;;;5036964;28;20041;-67
2023/08/31 06:35:29;;;;;;;12.48;5.82;;;11.80;99.90;;;;;;5030454;28;20047;-67
2023/08/31 06:37:55;;;;;;;11.63;5.45;;;12.10;99.90;;;;;;5021077;28;20330;-67
2023/08/31 06:40:21;;;;;;;10.18;4.82;;;12.30;99.90;;;;;;5031339;28;20385;-67
2023/08/31 06:42:47;;;;;;;11.27;4.88;;;12.50;99.90;;;;;;5036421;28;20049;-67
2023/08/31 06:45:12;;;;;;;9.70;4.55;;;12.40;99.90;;;;;;5058768;28;20072;-66
2023/08/31 06:47:38;;;;;;;8.02;3.95;;;12.70;99.90;;;;;;5020582;28;20036;-66
2023/08/31 06:50:04;;;;;;;7.55;3.35;;;12.90;99.90;;;;;;5038636;28;20095;-66
2023/08/31 06:52:30;;;;;;;4.72;3.15;;;12.90;99.90;;;;;;5036244;28;20118;-67
2023/08/31 06:54:56;;;;;;;7.47;2.60;;;13.10;99.90;;;;;;5037611;28;20501;-67
2023/08/31 06:57:27;;;;;;;6.80;3.10;;;13.10;99.90;;;;;;5037457;28;20535;-66
2023/08/31 06:59:53;;;;;;;5.13;2.00;;;13.10;99.90;;;;;;5025187;28;20053;-66
2023/08/31 07:02:20;;;;;;;3.58;2.03;;;13.10;99.90;;;;;;5035506;28;20032;-66
2023/08/31 07:04:47;;;;;;;4.45;2.10;;;13.30;99.90;;;;;;5030356;28;20498;-66
2023/08/31 07:07:13;;;;;;;3.25;1.70;;;13.40;99.90;;;;;;5027789;28;20033;-66
2023/08/31 07:09:43;;;;;;;5.22;1.83;;;13.70;99.90;;;;;;5029775;28;20449;-66
2023/08/31 07:12:10;;;;;;;2.78;1.60;;;13.70;99.90;;;;;;5028451;28;20112;-66
2023/08/31 07:14:35;;;;;;;4.85;1.33;;;13.70;99.90;;;;;;5029140;28;20048;-66
2023/08/31 07:17:01;;;;;;;3.40;1.33;;;13.80;99.90;;;;;;5039523;28;20038;-65
2023/08/31 07:19:27;;;;;;;3.50;1.20;;;14.00;99.90;;;;;;5036219;28;20334;-66
2023/08/31 07:21:54;;;;;;;3.95;1.35;;;14.00;99.90;;;;;;5044696;28;20057;-66
2023/08/31 07:24:21;;;;;;;2.20;1.10;;;14.20;99.90;;;;;;5020577;28;20342;-66
2023/08/31 07:26:47;;;;;;;2.40;1.23;;;14.30;99.90;;;;;;5032363;28;20041;-65
2023/08/31 07:29:12;;;;;;;5.28;1.23;;;14.40;99.90;;;;;;5045868;28;20425;-65
2023/08/31 07:31:38;;;;;;;2.08;1.10;;;14.50;99.90;;;;;;5048464;28;20055;-66
2023/08/31 07:34:03;;;;;;;3.17;1.17;;;14.60;99.90;;;;;;5047762;28;20041;-67
2023/08/31 07:36:29;;;;;;;2.67;0.98;;;14.60;99.90;;;;;;5047591;28;20051;-66
2023/08/31 07:38:54;;;;;;;3.75;1.00;;;14.80;99.90;;;;;;5039932;28;20033;-67
2023/08/31 07:41:20;;;;;;;5.30;1.17;;;14.90;99.90;;;;;;5046722;28;20124;-67
2023/08/31 07:43:46;;;;;;;4.70;1.30;;;15.10;99.90;;;;;;5047250;28;20152;-68
2023/08/31 07:46:11;;;;;;;4.60;0.90;;;15.10;99.90;;;;;;5046942;28;20159;-68
2023/08/31 07:48:37;;;;;;;4.75;1.20;;;15.30;99.90;;;;;;5049753;28;20095;-69
2023/08/31 07:51:03;;;;;;;4.65;1.05;;;15.40;99.90;;;;;;5043357;28;20036;-69
2023/08/31 07:53:28;;;;;;;4.68;1.17;;;15.70;99.90;;;;;;5032476;28;20110;-69
2023/08/31 07:55:56;;;;;;;3.80;0.93;;;15.70;99.90;;;;;;5048405;28;20044;-69
2023/08/31 07:58:22;;;;;;;2.22;0.80;;;15.80;99.90;;;;;;5049948;28;20555;-69
2023/08/31 08:00:48;;;;;;;5.53;1.05;;;15.70;99.90;;;;;;5042874;28;20072;-70
2023/08/31 08:03:14;;;;;;;2.03;0.80;;;15.50;99.90;;;;;;5048012;28;20072;-70
2023/08/31 08:05:41;;;;;;;3.17;0.70;;;15.60;99.90;;;;;;5027551;28;20029;-71
2023/08/31 08:08:06;;;;;;;1.40;0.70;;;15.70;99.90;;;;;;5033065;28;20041;-70
2023/08/31 08:10:32;;;;;;;3.08;0.80;;;15.90;99.90;;;;;;5038408;28;20377;-71
2023/08/31 08:12:58;;;;;;;2.25;0.70;;;16.10;99.90;;;;;;5036477;28;20033;-71
2023/08/31 08:15:24;;;;;;;2.05;0.65;;;16.00;99.90;;;;;;5033439;28;20040;-72
2023/08/31 08:17:50;;;;;;;2.95;1.13;;;16.30;99.90;;;;;;5025886;28;20041;-71
2023/08/31 08:20:15;;;;;;;5.57;0.90;;;16.50;99.90;;;;;;5037525;28;20116;-71
2023/08/31 08:22:41;;;;;;;3.72;0.75;;;16.70;99.90;;;;;;5043282;28;20044;-72
2023/08/31 08:25:07;;;;;;;3.95;0.88;;;16.90;99.90;;;;;;5034396;28;20044;-72
2023/08/31 08:27:33;;;;;;;4.90;0.90;;;16.60;99.90;;;;;;5034116;28;20053;-72
2023/08/31 08:29:59;;;;;;;3.97;1.00;;;16.60;99.90;;;;;;5047083;28;20041;-71
2023/08/31 08:32:24;;;;;;;3.78;1.10;;;16.50;99.90;;;;;;5038567;28;20059;-70
2023/08/31 08:34:51;;;;;;;4.00;0.80;;;16.60;99.90;;;;;;5034055;28;20045;-73
2023/08/31 08:37:16;;;;;;;1.98;0.75;;;16.90;99.90;;;;;;5032623;28;20048;-72
2023/08/31 08:39:42;;;;;;;3.58;0.80;;;17.10;99.90;;;;;;5032932;28;20767;-72
2023/08/31 08:42:10;;;;;;;2.30;0.80;;;17.30;99.90;;;;;;5018988;28;20028;-71
2023/08/31 08:44:36;;;;;;;2.78;1.00;;;17.40;99.90;;;;;;5034533;28;20136;-72
2023/08/31 08:47:03;;;;;;;3.33;0.80;;;17.90;99.90;;;;;;5041755;28;20033;-74
2023/08/31 08:49:30;;;;;;;5.35;1.20;;;18.30;99.90;;;;;;5051770;28;20037;-72
2023/08/31 08:51:56;;;;;;;4.30;1.08;;;18.40;99.90;;;;;;5035570;28;20066;-70
2023/08/31 08:54:22;;;;;;;5.82;0.98;;;18.30;99.90;;;;;;5038875;28;20051;-70
2023/08/31 08:56:48;;;;;;;1.35;0.50;;;18.40;99.90;;;;;;5038000;28;20123;-74
2023/08/31 08:59:14;;;;;;;2.83;0.50;;;18.30;99.90;;;;;;5047088;28;20048;-71
2023/08/31 09:01:40;;;;;;;3.17;0.60;;;18.00;99.90;;;;;;5034601;28;20041;-71
2023/08/31 09:04:06;;;;;;;1.42;0.35;;;18.10;99.90;;;;;;5031583;28;20042;-70
2023/08/31 09:06:32;;;;;;;1.48;0.55;;;18.20;99.90;;;;;;5034424;28;20400;-72
2023/08/31 09:08:58;;;;;;;3.53;0.75;;;18.20;99.90;;;;;;5041416;28;20183;-69
2023/08/31 09:11:24;;;;;;;1.40;0.50;;;18.20;99.90;;;;;;5047505;28;20511;-69
2023/08/31 09:13:51;;;;;;;2.05;0.50;;;18.50;99.90;;;;;;5036695;28;20057;-70
2023/08/31 09:16:30;;;;;;;1.23;0.30;;;18.60;99.90;;;;;;5033038;28;20045;-71
2023/08/31 09:18:58;;;;;;;1.92;0.40;;;18.90;99.90;;;;;;5035805;28;20087;-71
2023/08/31 09:21:36;;;;;;;1.13;0.60;;;18.90;99.90;;;;;;5023308;28;20054;-70
2023/08/31 09:24:02;;;;;;;2.55;0.70;;;19.10;99.90;;;;;;5037155;28;20094;-70
2023/08/31 09:26:28;;;;;;;3.90;0.70;;;18.90;99.90;;;;;;5039515;28;20036;-69
2023/08/31 09:28:53;;;;;;;1.10;0.55;;;18.70;99.90;;;;;;5050560;28;20095;-67
2023/08/31 09:31:19;;;;;;;1.48;0.35;;;18.50;99.90;;;;;;5047816;28;20113;-70
2023/08/31 09:33:51;;;;;;;0.82;0.30;;;18.40;99.90;;;;;;5038119;28;20053;-71
2023/08/31 09:36:18;;;;;;;2.00;0.43;;;18.20;98.50;;;;;;5044010;28;20041;-69
2023/08/31 09:38:44;;;;;;;1.42;0.40;;;18.10;99.40;;;;;;5047545;28;20045;-68
2023/08/31 09:41:09;;;;;;;2.53;0.30;;;18.00;99.30;;;;;;5049305;28;20045;-69
2023/08/31 09:43:35;;;;;;;4.13;0.70;;;17.80;99.30;;;;;;5037572;28;20119;-68
2023/08/31 09:46:03;;;;;;;1.83;0.32;;;17.50;99.00;;;;;;5031051;28;20044;-72
2023/08/31 09:48:30;;;;;;;1.55;0.40;;;17.30;97.90;;;;;;5039562;28;20028;-67
2023/08/31 09:50:57;;;;;;;1.70;0.40;;;16.80;99.90;;;;;;5032776;28;20047;-67
2023/08/31 09:53:24;;;;;;;4.88;0.65;;;16.30;99.90;;;;;;5049913;28;20097;-66
2023/08/31 09:55:51;;;;;;;3.42;0.57;;;15.70;99.90;;;;;;5049347;28;20040;-67
2023/08/31 09:58:19;;;;;;;3.45;0.80;;;15.40;99.90;;;;;;5041649;28;20449;-69
2023/08/31 10:00:46;;;;;;;3.13;0.88;;;15.20;99.90;;;;;;5044599;28;20123;-70
2023/08/31 10:03:18;;;;;;;2.10;0.60;;;14.80;99.90;;;;;;5037777;28;20117;-73
2023/08/31 10:05:44;;;;;;;1.63;0.73;;;14.80;99.90;;;;;;5049113;28;20369;-73
2023/08/31 10:08:11;;;;;;;0.90;0.50;;;14.80;99.90;;;;;;5035283;28;20111;-75
2023/08/31 10:10:37;;;;;;;3.38;0.85;;;14.80;99.90;;;;;;5047883;28;20033;-74
2023/08/31 10:13:05;;;;;;;2.78;0.63;;;14.80;99.90;;;;;;5046852;28;20217;-76
2023/08/31 10:15:37;;;;;;;2.15;0.50;;;15.00;99.90;;;;;;5042459;28;20048;-74
2023/08/31 10:18:04;;;;;;;2.63;1.13;;;15.20;99.90;;;;;;5020000;28;20029;-72
2023/08/31 10:20:32;;;;;;;1.42;0.77;;;15.20;99.90;;;;;;5033838;28;20044;-74
2023/08/31 10:22:58;;;;;;;2.30;0.70;;;15.20;99.90;;;;;;5041638;28;20080;-73
2023/08/31 10:25:26;;;;;;;1.83;0.65;;;15.20;99.90;;;;;;5030824;28;20033;-73
2023/08/31 10:27:52;;;;;;;3.13;1.10;;;15.20;99.90;;;;;;5041794;28;20037;-73
2023/08/31 10:30:25;;;;;;;2.55;0.50;;;15.40;99.90;;;;;;5043887;28;20357;-71
2023/08/31 10:33:09;;;;;;;3.38;0.70;;;15.50;99.90;;;;;;5028278;28;20670;-72
2023/08/31 10:35:47;;;;;;;1.80;0.50;;;15.40;99.90;;;;;;5040384;28;20069;-72
2023/08/31 10:38:23;;;;;;;2.22;0.50;;;15.60;99.90;;;;;;5027219;28;20037;-72
2023/08/31 10:41:07;;;;;;;3.05;0.50;;;15.60;99.90;;;;;;5030570;28;20042;-69
2023/08/31 10:43:45;;;;;;;3.05;0.50;;;15.80;99.90;;;;;;5023985;28;20044;-70
2023/08/31 10:46:34;;;;;;;2.08;0.70;;;16.00;99.90;;;;;;5044129;28;20088;-68
2023/08/31 10:49:11;;;;;;;2.30;0.50;;;16.00;99.90;;;;;;5013274;28;20393;-68
2023/08/31 10:51:46;;;;;;;2.25;0.52;;;16.20;99.90;;;;;;5039604;28;20357;-67
2023/08/31 10:54:26;;;;;;;0.88;0.50;;;16.40;99.90;;;;;;5036704;28;20124;-68
2023/08/31 10:56:53;;;;;;;0.90;0.45;;;16.30;99.90;;;;;;5047868;28;20037;-69
2023/08/31 10:59:19;;;;;;;2.38;0.40;;;16.20;99.90;;;;;;5047287;28;20068;-68
2023/08/31 11:01:53;;;;;;;2.38;0.50;;;16.10;99.90;;;;;;5047149;28;20099;-67
2023/08/31 11:04:20;;;;;;;2.78;0.52;;;16.10;99.90;;;;;;5040563;28;20085;-67
2023/08/31 11:06:45;;;;;;;0.85;0.35;;;16.00;99.90;;;;;;5037934;28;20045;-67
2023/08/31 11:09:20;;;;;;;2.05;0.50;;;15.80;99.90;;;;;;5038657;28;20041;-67
2023/08/31 11:11:45;;;;;;;4.07;0.43;;;15.80;99.90;;;;;;5030414;28;20052;-67
2023/08/31 11:14:11;;;;;;;1.58;0.40;;;15.70;99.90;;;;;;5036255;28;20049;-66
2023/08/31 11:16:40;;;;;;;1.63;0.80;;;15.50;99.90;;;;;;5030474;28;20048;-65
2023/08/31 11:19:05;;;;;;;0.98;0.50;;;15.60;99.90;;;;;;5037427;28;20052;-66
2023/08/31 11:21:31;;;;;;;1.85;0.50;;;15.70;99.90;;;;;;5044072;28;20384;-66
2023/08/31 11:23:58;;;;;;;1.83;0.50;;;15.90;99.90;;;;;;5037451;28;21010;-65
2023/08/31 11:26:25;;;;;;;4.35;0.75;;;16.10;99.90;;;;;;5030206;28;20401;-67
2023/08/31 11:28:51;;;;;;;1.00;0.40;;;16.20;99.90;;;;;;5035371;28;20028;-65
2023/08/31 11:31:23;;;;;;;2.05;0.55;;;16.30;99.90;;;;;;5029456;28;20056;-65
2023/08/31 11:33:49;;;;;;;1.25;0.40;;;16.40;99.90;;;;;;5028082;28;20098;-65
2023/08/31 11:36:17;;;;;;;1.98;0.60;;;16.40;99.90;;;;;;5029123;28;20545;-65
2023/08/31 11:38:43;;;;;;;1.80;0.50;;;16.50;99.90;;;;;;5027404;28;20053;-65
2023/08/31 11:41:09;;;;;;;1.38;0.40;;;16.60;99.90;;;;;;5047079;28;20074;-65
2023/08/31 11:43:36;;;;;;;3.63;0.50;;;16.80;99.90;;;;;;5049119;28;20124;-66
2023/08/31 11:46:03;;;;;;;4.97;0.60;;;17.00;99.90;;;;;;5042135;28;20469;-67
2023/08/31 11:48:28;;;;;;;0.80;0.40;;;17.10;99.90;;;;;;5035230;28;20036;-66
2023/08/31 11:50:55;;;;;;;3.20;0.60;;;17.30;99.90;;;;;;5036536;28;20037;-69
2023/08/31 11:53:20;;;;;;;1.98;0.50;;;17.30;99.90;;;;;;5028089;28;20163;-66
2023/08/31 11:55:51;;;;;;;1.35;0.40;;;17.30;99.90;;;;;;5053449;28;20069;-66
2023/08/31 11:58:16;;;;;;;3.70;0.70;;;17.50;99.90;;;;;;5046747;28;20037;-67
2023/08/31 12:00:43;;;;;;;1.95;0.82;;;17.50;99.90;;;;;;5045607;28;20373;-66
2023/08/31 12:03:09;;;;;;;2.65;0.40;;;17.70;99.90;;;;;;5040191;28;20037;-66
2023/08/31 12:05:48;;;;;;;2.50;0.73;;;17.50;99.90;;;;;;5030955;28;20049;-67
2023/08/31 12:08:15;;;;;;;3.20;0.60;;;17.50;97.40;;;;;;5037291;28;20049;-67
2023/08/31 12:10:42;;;;;;;1.30;0.70;;;17.30;99.90;;;;;;5003623;28;20037;-67
2023/08/31 12:13:09;;;;;;;1.92;0.60;;;17.50;99.90;;;;;;5046161;28;20389;-66
2023/08/31 12:15:34;;;;;;;1.92;0.50;;;17.60;99.90;;;;;;5023865;28;20091;-67
2023/08/31 12:18:10;;;;;;;2.17;0.30;;;17.80;98.80;;;;;;5029436;28;20069;-66
2023/08/31 12:20:46;;;;;;;3.60;0.63;;;17.90;98.10;;;;;;5036504;28;20116;-67
2023/08/31 12:23:11;;;;;;;2.25;0.45;;;18.00;91.70;;;;;;5035064;28;20037;-66
2023/08/31 12:25:37;;;;;;;1.33;0.50;;;18.30;97.60;;;;;;5033072;28;20041;-67
2023/08/31 12:28:03;;;;;;;1.55;0.40;;;18.60;97.30;;;;;;5038707;28;20374;-67
2023/08/31 12:30:29;;;;;;;1.88;0.40;;;18.70;97.00;;;;;;5035772;28;20040;-66
2023/08/31 12:32:54;;;;;;;2.35;0.30;;;18.70;95.50;;;;;;5037955;28;20037;-67
2023/08/31 12:35:21;;;;;;;1.95;0.40;;;18.80;94.30;;;;;;5038301;28;20059;-68
2023/08/31 12:37:46;;;;;;;3.45;0.60;;;19.00;93.10;;;;;;5038998;28;20049;-67
2023/08/31 12:40:12;;;;;;;2.30;0.65;;;19.30;93.50;;;;;;5046652;28;20047;-67
2023/08/31 12:42:37;;;;;;;2.70;0.45;;;19.50;93.20;;;;;;5037841;28;20064;-67
2023/08/31 12:45:05;;;;;;;1.05;0.50;;;19.20;92.60;;;;;;5040348;28;20052;-68